Time;durP1;ratioP1;P1;durP2;ratioP2;P2;SDS_P1;SDS_P2;PMS_P1;PMS_P2;Temp;Humidity;BMP_temperature;BMP_pressure;BME280_temperature;BME280_humidity;BME280_pressure;Samples;Min_cycle;Max_cycle;Signal;HPM_P1;HPM_P2
2023/08/15 00:04:42;;;;;;;12.13;7.72;;;;;;;-145.68;84.52;72540.50;10411496;28;20209;-68
2023/08/15 00:09:42;;;;;;;8.90;7.75;;;;;;;-145.68;85.26;72556.47;10411626;28;20185;-68
2023/08/15 00:14:43;;;;;;;8.82;7.63;;;;;;;-145.68;89.05;72582.44;10411145;28;20274;-67
2023/08/15 00:19:43;;;;;;;11.80;7.50;;;;;;;-145.68;91.67;72612.44;10411034;28;20693;-67
2023/08/15 00:24:44;;;;;;;10.20;8.27;;;;;;;-145.68;100.00;72678.38;10411001;28;20706;-67
2023/08/15 00:29:44;;;;;;;7.75;6.95;;;;;;;-145.68;100.00;72752.31;10410807;28;20189;-67
2023/08/15 00:34:45;;;;;;;9.52;5.97;;;;;;;-145.68;100.00;72816.25;10414466;28;20228;-68
2023/08/15 00:39:45;;;;;;;6.38;5.75;;;;;;;-145.68;100.00;72860.22;10419050;28;20251;-68
2023/08/15 00:44:45;;;;;;;5.75;5.22;;;;;;;-145.68;100.00;72900.19;10418731;28;20215;-68
2023/08/15 00:49:46;;;;;;;6.25;5.07;;;;;;;-145.68;100.00;72916.19;10419014;28;20314;-67
2023/08/15 00:54:49;;;;;;;6.90;4.75;;;;;;;-145.68;100.00;72940.16;10416856;28;20222;-68
2023/08/15 00:59:49;;;;;;;8.45;5.10;;;;;;;-145.68;100.00;72972.16;10417089;28;20196;-69
2023/08/15 01:04:50;;;;;;;7.82;5.53;;;;;;;-145.68;100.00;73020.13;10416628;28;20208;-67
2023/08/15 01:09:50;;;;;;;9.65;5.22;;;;;;;-145.68;100.00;73044.09;10417018;28;20189;-68
2023/08/15 01:15:04;;;;;;;6.57;5.13;;;;;;;-145.68;100.00;73068.06;10417729;28;20224;-68
2023/08/15 01:20:07;;;;;;;6.68;5.07;;;;;;;-145.68;100.00;73048.09;10416322;28;20216;-68
2023/08/15 01:25:09;;;;;;;6.40;4.40;;;;;;;-145.68;100.00;73090.06;10415983;28;20252;-68
2023/08/15 01:30:13;;;;;;;9.15;6.22;;;;;;;-145.68;100.00;73156.00;10417067;28;20604;-67
2023/08/15 01:35:17;;;;;;;10.02;6.50;;;;;;;-145.68;100.00;73158.00;10415637;28;20624;-67
2023/08/15 01:40:20;;;;;;;6.65;5.72;;;;;;;-145.68;100.00;73136.03;10415743;28;20177;-67
2023/08/15 01:45:21;;;;;;;11.05;5.97;;;;;;;-145.68;100.00;73144.03;10398374;28;20189;-67
2023/08/15 01:50:22;;;;;;;10.65;7.13;;;;;;;-145.68;100.00;73182.00;10414603;28;20239;-67
2023/08/15 01:55:22;;;;;;;10.20;6.90;;;;;;;-145.68;100.00;73168.00;10415931;28;20197;-67
2023/08/15 02:00:23;;;;;;;9.20;6.28;;;;;;;-145.68;100.00;73172.00;10414240;28;20580;-67
2023/08/15 02:05:24;;;;;;;9.75;6.47;;;;;;;-145.68;100.00;73172.00;10415549;28;20185;-67
2023/08/15 02:10:25;;;;;;;8.82;7.68;;;;;;;-145.68;100.00;73207.97;10415953;28;20283;-67
2023/08/15 02:15:25;;;;;;;10.43;7.10;;;;;;;-145.68;100.00;73207.97;10414590;28;20193;-67
2023/08/15 02:20:25;;;;;;;7.65;6.95;;;;;;;-145.68;100.00;73203.97;10413944;28;20801;-67
2023/08/15 02:25:26;;;;;;;11.65;7.32;;;;;;;-145.68;100.00;73207.97;10415472;28;20218;-66
2023/08/15 02:30:26;;;;;;;8.45;6.82;;;;;;;-145.68;100.00;73223.97;10415024;28;20225;-67
2023/08/15 02:35:26;;;;;;;10.38;7.90;;;;;;;-145.68;100.00;73227.97;10413573;28;20193;-67
2023/08/15 02:40:31;;;;;;;13.07;8.63;;;;;;;-145.68;100.00;73227.97;10413488;28;20181;-67
2023/08/15 02:45:31;;;;;;;9.95;8.77;;;;;;;-145.68;100.00;73211.97;10413648;28;20215;-67
2023/08/15 02:50:32;;;;;;;15.02;10.75;;;;;;;-145.68;100.00;73215.97;10413707;28;20228;-68
2023/08/15 02:55:33;;;;;;;11.73;9.82;;;;;;;-145.68;100.00;73196.00;10412907;28;20185;-66
2023/08/15 03:00:36;;;;;;;12.32;9.52;;;;;;;-145.68;100.00;73192.00;10412962;28;20208;-67
2023/08/15 03:05:38;;;;;;;12.93;10.20;;;;;;;-145.68;100.00;73188.00;10384080;28;20602;-67
2023/08/15 03:10:39;;;;;;;14.13;12.60;;;;;;;-145.68;100.00;73184.00;10371186;28;20221;-67
2023/08/15 03:15:40;;;;;;;14.88;10.77;;;;;;;-145.68;100.00;73144.03;10372447;28;20194;-66
2023/08/15 03:20:41;;;;;;;10.77;9.60;;;;;;;-145.68;100.00;73154.03;10370612;28;20230;-67
2023/08/15 03:25:42;;;;;;;13.07;10.10;;;;;;;-145.68;100.00;73148.03;10371000;28;20192;-67
2023/08/15 03:30:42;;;;;;;10.98;9.93;;;;;;;-145.68;100.00;73156.00;10371726;28;20221;-68
2023/08/15 03:35:49;;;;;;;11.18;10.18;;;;;;;-145.68;100.00;73160.00;10370266;28;20687;-68
2023/08/15 03:40:59;;;;;;;11.27;9.93;;;;;;;-145.68;100.00;73158.00;10370031;28;20213;-67
2023/08/15 03:46:01;;;;;;;10.40;9.40;;;;;;;-145.68;100.00;73164.00;10371345;28;20679;-67
2023/08/15 03:51:01;;;;;;;11.95;9.50;;;;;;;-145.68;100.00;73176.00;10370155;28;20224;-68
2023/08/15 03:56:01;;;;;;;11.23;9.07;;;;;;;-145.68;100.00;73192.00;10370963;28;20200;-68
2023/08/15 04:01:02;;;;;;;10.98;8.68;;;;;;;-145.68;100.00;73221.97;10369959;28;20555;-67
2023/08/15 04:06:03;;;;;;;11.35;9.82;;;;;;;-145.68;100.00;73247.97;10369578;28;20196;-67
2023/08/15 04:11:04;;;;;;;12.52;10.18;;;;;;;-145.68;100.00;73255.94;10370303;28;20695;-68
2023/08/15 04:16:04;;;;;;;11.13;9.30;;;;;;;-145.68;100.00;73263.94;10370683;28;20343;-67
2023/08/15 04:21:05;;;;;;;11.27;10.20;;;;;;;-145.68;100.00;73263.94;10370403;28;20221;-67
2023/08/15 04:26:06;;;;;;;11.32;9.65;;;;;;;-145.68;100.00;73249.94;10369403;28;20200;-67
2023/08/15 04:31:06;;;;;;;10.45;9.32;;;;;;;-145.68;100.00;73241.97;10368850;28;20560;-67
2023/08/15 04:36:07;;;;;;;15.70;8.75;;;;;;;-145.68;100.00;73215.97;10369259;28;20208;-67
2023/08/15 04:41:07;;;;;;;11.40;7.90;;;;;;;-145.68;100.00;73186.00;10368804;28;20263;-67
2023/08/15 04:46:08;;;;;;;9.80;6.78;;;;;;;-145.68;100.00;73078.06;10370074;28;20196;-66
2023/08/15 04:51:08;;;;;;;10.10;6.65;;;;;;;-145.68;100.00;72956.16;10370242;28;20317;-67
2023/08/15 04:56:11;;;;;;;5.70;4.93;;;;;;;-145.68;100.00;72880.22;10369743;28;20272;-67
2023/08/15 05:01:11;;;;;;;7.72;5.38;;;;;;;-145.68;92.01;72810.28;10368853;28;20217;-67
2023/08/15 05:06:12;;;;;;;6.47;5.07;;;;;;;-145.68;82.34;72732.34;10368344;28;20196;-67
2023/08/15 05:11:12;;;;;;;6.63;4.22;;;;;;;-145.68;76.71;72682.38;10369825;28;20222;-67
2023/08/15 05:16:13;;;;;;;7.53;4.22;;;;;;;-145.68;72.55;72646.41;10369272;28;20583;-67
2023/08/15 05:21:14;;;;;;;8.57;4.43;;;;;;;-145.68;71.10;72630.41;10397233;22;20204;-69
2023/08/15 05:26:14;;;;;;;6.40;4.53;;;;;;;-145.68;69.12;72604.44;10455423;28;20710;-68
2023/08/15 05:31:15;;;;;;;7.90;4.65;;;;;;;-145.68;68.24;72588.44;10456542;28;20307;-68
2023/08/15 05:36:17;;;;;;;4.70;4.20;;;;;;;-145.68;67.56;72572.47;10458185;28;20241;-68
2023/08/15 05:41:17;;;;;;;8.95;4.65;;;;;;;-145.68;65.46;72540.50;10458215;28;20245;-69
2023/08/15 05:46:18;;;;;;;6.63;4.25;;;;;;;-145.68;64.05;72518.50;10434150;28;20249;-69
2023/08/15 05:51:18;;;;;;;11.18;3.70;;;;;;;-145.68;62.28;72488.53;10416398;28;20232;-68
2023/08/15 05:56:18;;;;;;;6.97;3.75;;;;;;;-145.68;61.45;72454.56;10416461;28;20193;-68
2023/08/15 06:01:21;;;;;;;7.32;3.65;;;;;;;-145.68;58.95;72410.59;10416038;28;20301;-68
2023/08/15 06:06:22;;;;;;;7.80;4.03;;;;;;;-145.68;57.16;72326.69;10416017;28;20271;-68
2023/08/15 06:11:22;;;;;;;5.03;3.95;;;;;;;-145.68;56.16;72268.72;10415609;28;20221;-68
2023/08/15 06:16:23;;;;;;;9.05;3.90;;;;;;;-145.68;55.25;72224.78;10415599;28;20275;-69
2023/08/15 06:21:23;;;;;;;6.15;4.07;;;;;;;-145.68;51.94;72114.88;10415341;28;20225;-68
2023/08/15 06:26:23;;;;;;;6.53;3.67;;;;;;;-145.68;51.32;72092.91;10415015;28;20268;-69
2023/08/15 06:31:24;;;;;;;6.60;3.80;;;;;;;-145.68;50.17;72040.94;10414837;28;20259;-68
2023/08/15 06:36:24;;;;;;;24.00;4.18;;;;;;;-145.68;47.94;71945.03;10417194;28;20546;-69
2023/08/15 06:41:24;;;;;;;8.38;4.00;;;;;;;-145.68;47.92;71957.03;10432664;28;20203;-69
2023/08/15 06:46:27;;;;;;;9.23;3.83;;;;;;;-145.68;48.33;72014.97;10434042;28;20184;-69
2023/08/15 06:51:27;;;;;;;10.10;3.78;;;;;;;-145.68;48.35;71971.00;10443604;28;20277;-69
2023/08/15 06:56:28;;;;;;;4.18;3.65;;;;;;;-145.68;48.28;71889.09;10454123;28;20207;-69
2023/08/15 07:01:28;;;;;;;6.80;3.65;;;;;;;-145.68;47.45;71885.09;10453455;28;20759;-68
2023/08/15 07:06:28;;;;;;;10.13;4.43;;;;;;;-145.68;46.43;71869.13;10453536;28;20605;-68
2023/08/15 07:11:29;;;;;;;9.03;5.20;;;;;;;-145.68;48.33;71981.00;10453235;28;20228;-68
2023/08/15 07:16:29;;;;;;;8.77;4.17;;;;;;;-145.68;48.45;71998.97;10451383;28;20525;-68
2023/08/15 07:21:30;;;;;;;4.90;3.78;;;;;;;-145.68;47.71;72008.97;10452595;28;20478;-68
2023/08/15 07:26:30;;;;;;;8.48;3.95;;;;;;;-145.68;48.31;72016.97;10452308;28;20271;-68
2023/08/15 07:31:30;;;;;;;6.17;3.57;;;;;;;-145.68;47.04;71929.06;10452081;28;20215;-67
2023/08/15 07:36:31;;;;;;;8.32;3.75;;;;;;;-145.68;46.54;71913.06;10451636;28;20529;-67
2023/08/15 07:41:31;;;;;;;7.18;4.40;;;;;;;-145.68;46.01;71865.13;10449171;28;20219;-68
2023/08/15 07:46:32;;;;;;;5.10;3.80;;;;;;;-145.68;46.14;71849.13;10449777;28;20219;-67
2023/08/15 07:51:32;;;;;;;7.82;3.38;;;;;;;-145.68;44.66;71737.25;10450632;28;20755;-68
2023/08/15 07:56:33;;;;;;;4.13;3.05;;;;;;;-145.68;44.31;71747.25;10451530;28;20200;-69
2023/08/15 08:01:34;;;;;;;4.38;3.60;;;;;;;-145.68;43.08;71637.34;10451174;28;20208;-70
2023/08/15 08:06:34;;;;;;;7.10;3.20;;;;;;;-145.68;41.30;71553.44;10451271;28;20674;-67
2023/08/15 08:11:35;;;;;;;5.53;3.50;;;;;;;-145.68;40.09;71473.53;10450843;28;20269;-68
2023/08/15 08:16:35;;;;;;;7.17;3.53;;;;;;;-145.68;39.57;71429.59;10449707;28;20458;-68
2023/08/15 08:21:36;;;;;;;3.80;3.40;;;;;;;-145.68;38.95;71433.56;10418308;28;20493;-69
2023/08/15 08:26:37;;;;;;;4.60;3.13;;;;;;;-145.68;38.96;71443.56;10409421;28;20505;-68
2023/08/15 08:31:39;;;;;;;8.23;2.95;;;;;;;-145.68;40.40;71543.44;10427871;28;20231;-68
2023/08/15 08:36:40;;;;;;;7.25;3.40;;;;;;;-145.68;41.25;71631.34;10429136;28;20724;-68
2023/08/15 08:41:41;;;;;;;5.97;3.33;;;;;;;-145.68;41.87;71711.28;10425815;28;20675;-69
2023/08/15 08:46:42;;;;;;;3.90;3.10;;;;;;;-145.68;41.49;71705.28;10428211;28;20269;-69
2023/08/15 08:51:43;;;;;;;4.57;3.58;;;;;;;-145.68;41.48;71689.31;10450511;28;20276;-67
2023/08/15 08:56:44;;;;;;;3.55;3.20;;;;;;;-145.68;43.56;71787.19;10494995;28;20206;-68
2023/08/15 09:01:44;;;;;;;5.70;3.13;;;;;;;-145.68;43.32;71801.19;10414712;28;20223;-69
2023/08/15 09:06:46;;;;;;;5.72;3.70;;;;;;;-145.68;42.65;71855.13;10457170;28;20203;-68
2023/08/15 09:11:47;;;;;;;5.45;3.90;;;;;;;-145.68;40.86;71553.44;10497722;28;20219;-69
2023/08/15 09:16:48;;;;;;;9.02;3.53;;;;;;;-145.68;41.08;71649.34;10483936;28;20192;-69
2023/08/15 09:21:48;;;;;;;3.92;3.22;;;;;;;-145.68;39.36;71471.53;10484344;28;20761;-69
2023/08/15 09:26:49;;;;;;;5.30;3.47;;;;;;;-145.68;38.28;71415.59;10496759;28;20195;-70
2023/08/15 09:31:49;;;;;;;5.53;3.35;;;;;;;-145.68;39.98;71467.53;10497455;28;20484;-68
2023/08/15 09:36:50;;;;;;;5.60;3.67;;;;;;;-145.68;38.03;71313.72;10496666;28;20184;-69
2023/08/15 09:41:52;;;;;;;5.63;3.85;;;;;;;-145.68;38.17;71263.78;10459059;28;20287;-69
2023/08/15 09:46:52;;;;;;;4.57;3.40;;;;;;;-145.68;40.50;71539.47;10435859;28;20505;-70
2023/08/15 09:51:53;;;;;;;5.68;3.58;;;;;;;-145.68;39.99;71547.44;10442422;28;20215;-69
2023/08/15 09:56:53;;;;;;;5.97;3.43;;;;;;;-145.68;40.13;71493.50;10422098;28;20745;-69
2023/08/15 10:01:55;;;;;;;5.43;3.83;;;;;;;-145.68;40.15;71445.56;10452576;28;20975;-69
2023/08/15 10:06:55;;;;;;;5.72;3.58;;;;;;;-145.68;38.52;71391.63;10469896;28;20292;-70
2023/08/15 10:11:57;;;;;;;7.57;3.70;;;;;;;-145.68;37.56;71351.66;10454528;28;20681;-69
2023/08/15 10:16:58;;;;;;;6.05;3.47;;;;;;;-145.68;36.24;71221.81;10469656;28;20285;-69
2023/08/15 10:21:58;;;;;;;6.93;3.63;;;;;;;-145.68;35.39;71068.00;10453957;28;20329;-69
2023/08/15 10:26:59;;;;;;;5.63;3.60;;;;;;;-145.68;36.05;71097.97;10473203;28;20676;-69
2023/08/15 10:32:00;;;;;;;6.65;4.07;;;;;;;-145.68;36.02;71153.91;10467419;28;20488;-70
2023/08/15 10:37:48;;;;;;;9.02;3.80;;;;;;;-145.68;39.26;71461.53;10460031;28;20228;-69
2023/08/15 10:42:57;;;;;;;8.20;3.70;;;;;;;-145.68;37.15;71253.78;10414958;28;20234;-69
2023/08/15 10:47:59;;;;;;;5.60;3.95;;;;;;;-145.68;36.60;71157.91;10454096;28;20192;-69
2023/08/15 10:53:04;;;;;;;7.00;3.78;;;;;;;-145.68;35.91;71054.03;10457023;28;20214;-69
2023/08/15 10:58:09;;;;;;;8.50;3.80;;;;;;;-145.68;34.86;70942.16;10485952;28;20191;-70
2023/08/15 11:03:09;;;;;;;7.18;3.85;;;;;;;-145.68;36.21;71139.91;10492936;28;20307;-69
2023/08/15 11:08:10;;;;;;;4.13;3.30;;;;;;;-145.68;35.93;71097.97;10483963;28;20287;-69
2023/08/15 11:13:10;;;;;;;8.65;3.78;;;;;;;-145.68;35.97;71177.88;10432143;28;20689;-69
2023/08/15 11:18:11;;;;;;;5.10;3.75;;;;;;;-145.68;35.47;71044.03;10440668;28;20926;-69
2023/08/15 11:23:12;;;;;;;6.32;3.50;;;;;;;-145.68;34.58;70944.16;10440793;22;20350;-77
2023/08/15 11:28:13;;;;;;;4.03;3.60;;;;;;;-145.68;33.48;70804.34;10448913;28;20261;-78
2023/08/15 11:33:14;;;;;;;5.97;3.78;;;;;;;-145.68;32.82;70734.41;10449232;28;20589;-76
2023/08/15 11:38:17;;;;;;;6.53;4.28;;;;;;;-145.68;31.90;70700.47;10448635;28;20187;-77
2023/08/15 11:43:17;;;;;;;5.28;4.00;;;;;;;-145.68;32.54;70540.69;10447946;28;20564;-76
2023/08/15 11:48:18;;;;;;;4.82;3.60;;;;;;;-145.68;33.15;70770.38;10451431;28;20209;-78
2023/08/15 11:53:19;;;;;;;5.15;4.05;;;;;;;-145.68;32.67;70816.31;10484654;28;20589;-77
2023/08/15 11:58:30;;;;;;;6.55;3.65;;;;;;;-145.68;33.58;70838.28;10449361;28;20611;-77
2023/08/15 12:03:31;;;;;;;6.85;3.63;;;;;;;-145.68;34.41;70948.16;10449605;28;20302;-76
2023/08/15 12:08:32;;;;;;;6.03;3.80;;;;;;;-145.68;36.02;71125.94;10448959;28;20222;-75
2023/08/15 12:13:40;;;;;;;5.07;3.80;;;;;;;-145.68;34.94;71064.00;10449946;28;20317;-74
2023/08/15 12:18:40;;;;;;;9.65;3.58;;;;;;;-145.68;33.12;70760.38;10449368;28;20667;-75
2023/08/15 12:23:40;;;;;;;7.67;3.50;;;;;;;-145.68;31.83;70582.63;10449188;28;20239;-75
2023/08/15 12:28:41;;;;;;;7.03;4.07;;;;;;;-145.68;31.22;70552.66;10448838;28;20437;-75
2023/08/15 12:33:41;;;;;;;5.00;3.20;;;;;;;-145.68;29.06;70374.91;10457497;28;20276;-75
2023/08/15 12:38:42;;;;;;;4.55;3.33;;;;;;;-145.68;29.90;70606.59;10456931;28;20444;-76
2023/08/15 12:43:42;;;;;;;6.43;3.70;;;;;;;-145.68;31.16;70666.50;10457224;28;20283;-76
2023/08/15 12:48:43;;;;;;;4.20;3.10;;;;;;;-145.68;30.51;70506.72;10456795;28;20221;-76
2023/08/15 12:53:43;;;;;;;4.40;3.03;;;;;;;-145.68;31.16;70398.88;10455446;28;20659;-76
2023/08/15 12:58:44;;;;;;;3.85;3.08;;;;;;;-145.68;29.64;70422.84;10456635;28;20442;-76
2023/08/15 13:03:44;;;;;;;7.15;3.25;;;;;;;-145.68;31.33;70688.47;10454179;28;20182;-77
2023/08/15 13:08:45;;;;;;;6.07;4.43;;;;;;;-145.68;33.76;70894.22;10455410;28;21447;-75
2023/08/15 13:13:45;;;;;;;7.05;3.97;;;;;;;-145.68;36.59;71185.88;10454498;28;20477;-76
2023/08/15 13:18:45;;;;;;;6.95;4.47;;;;;;;-145.68;35.88;71113.94;10455057;28;20656;-76
2023/08/15 13:23:46;;;;;;;6.40;4.17;;;;;;;-145.68;32.86;70814.31;10451097;28;20707;-76
2023/08/15 13:28:48;;;;;;;6.85;4.07;;;;;;;-145.68;31.16;70658.53;10455911;28;20448;-77
2023/08/15 13:33:48;;;;;;;7.75;4.05;;;;;;;-145.68;33.21;70856.25;10455089;28;20216;-76
2023/08/15 13:38:49;;;;;;;9.40;4.20;;;;;;;-145.68;33.54;70880.22;10469159;28;20178;-76
2023/08/15 13:43:50;;;;;;;9.40;4.00;;;;;;;-145.68;32.44;70754.41;10495456;28;20531;-76
2023/08/15 13:48:50;;;;;;;5.25;3.78;;;;;;;-145.68;33.05;70822.31;10495279;28;20517;-76
2023/08/15 13:53:51;;;;;;;6.32;3.47;;;;;;;-145.68;30.52;70586.63;10496466;28;20214;-75
2023/08/15 13:58:54;;;;;;;6.70;3.50;;;;;;;-145.68;31.08;70582.63;10495583;28;20571;-77
2023/08/15 14:03:54;;;;;;;7.47;3.40;;;;;;;-145.68;30.06;70480.75;10495292;28;20220;-77
2023/08/15 14:08:55;;;;;;;6.43;3.50;;;;;;;-145.68;30.69;70582.63;10495647;28;20822;-77
2023/08/15 14:13:55;;;;;;;4.97;3.10;;;;;;;-145.68;30.03;70598.59;10493578;28;20271;-76
2023/08/15 14:18:56;;;;;;;7.77;3.43;;;;;;;-145.68;28.21;70394.88;10495369;28;20194;-76
2023/08/15 14:23:56;;;;;;;6.53;3.30;;;;;;;-145.68;28.57;70464.78;10494632;28;20468;-76
2023/08/15 14:28:57;;;;;;;7.18;3.60;;;;;;;-145.68;28.79;70554.66;10478059;28;20812;-76
2023/08/15 14:33:57;;;;;;;5.10;3.00;;;;;;;-145.68;28.15;70558.66;10453255;28;20589;-75
2023/08/15 14:38:57;;;;;;;4.53;3.53;;;;;;;-145.68;30.69;70808.31;10452409;28;20434;-76
2023/08/15 14:43:58;;;;;;;5.80;3.50;;;;;;;-145.68;30.99;70910.19;10453322;28;20437;-75
2023/08/15 14:48:58;;;;;;;5.93;3.50;;;;;;;-145.68;31.90;71121.94;10452481;28;20215;-75
2023/08/15 14:53:59;;;;;;;6.72;3.08;;;;;;;-145.68;33.79;71287.75;10452477;28;20474;-75
2023/08/15 14:58:59;;;;;;;8.25;3.35;;;;;;;-145.68;34.03;71379.63;10452288;28;20823;-75
2023/08/15 15:04:00;;;;;;;7.72;3.20;;;;;;;-145.68;34.84;71485.53;10450621;28;20241;-75
2023/08/15 15:09:00;;;;;;;4.68;3.33;;;;;;;-145.68;35.08;71597.41;10452374;28;20243;-74
2023/08/15 15:14:00;;;;;;;4.25;3.20;;;;;;;-145.68;35.21;71597.41;10456769;28;20225;-74
2023/08/15 15:19:32;;;;;;;5.75;2.97;;;;;;;-145.68;34.89;71541.47;10494178;28;20191;-75
2023/08/15 15:24:32;;;;;;;4.90;3.45;;;;;;;-145.68;34.92;71563.44;10442993;28;20232;-75
2023/08/15 15:29:33;;;;;;;3.85;3.42;;;;;;;-145.68;37.06;71559.44;10451486;28;20191;-75
2023/08/15 15:34:33;;;;;;;6.57;3.20;;;;;;;-145.68;37.81;71633.34;10450228;28;20569;-75
2023/08/15 15:39:33;;;;;;;5.28;3.50;;;;;;;-145.68;38.22;71661.31;10450349;28;20207;-75
2023/08/15 15:44:34;;;;;;;5.35;3.55;;;;;;;-145.68;38.91;71697.28;10449950;28;20191;-74
2023/08/15 15:49:34;;;;;;;10.93;4.15;;;;;;;-145.68;44.47;71761.22;10449471;28;20879;-75
2023/08/15 15:54:35;;;;;;;7.55;4.20;;;;;;;-145.68;47.90;71819.16;10449375;28;20220;-75
2023/08/15 15:59:35;;;;;;;14.68;5.90;;;;;;;-145.68;55.50;72016.97;10449848;28;20192;-74
2023/08/15 16:04:36;;;;;;;12.93;6.95;;;;;;;-145.68;61.45;72094.88;10449152;28;20184;-74
2023/08/15 16:09:36;;;;;;;8.02;7.18;;;;;;;-145.68;74.11;72240.75;10449599;28;20687;-76
2023/08/15 16:15:00;;;;;;;13.20;7.00;;;;;;;-145.68;78.49;72238.75;10447738;28;20216;-75
2023/08/15 16:20:01;;;;;;;13.23;7.13;;;;;;;-145.68;78.88;72276.72;10462218;28;20634;-75
2023/08/15 16:25:02;;;;;;;10.68;6.93;;;;;;;-145.68;79.87;72352.66;10489278;28;20241;-76
2023/08/15 16:30:06;;;;;;;9.65;6.82;;;;;;;-145.68;78.24;72396.63;10489083;28;20187;-76
2023/08/15 16:35:06;;;;;;;9.13;5.82;;;;;;;-145.68;76.33;72436.56;10488393;28;20269;-76
2023/08/15 16:40:07;;;;;;;6.22;4.75;;;;;;;-145.68;76.22;72404.59;10455798;28;20275;-76
2023/08/15 16:45:08;;;;;;;9.57;5.45;;;;;;;-145.68;75.23;72398.63;10447978;28;20249;-76
2023/08/15 16:50:09;;;;;;;10.25;5.55;;;;;;;-145.68;72.38;72376.63;10449604;28;20581;-76
2023/08/15 16:55:15;;;;;;;10.45;5.20;;;;;;;-145.68;73.05;72374.63;10449195;28;20266;-77
2023/08/15 17:00:16;;;;;;;8.90;5.65;;;;;;;-145.68;72.16;72380.63;10449209;28;20227;-76
2023/08/15 17:05:16;;;;;;;9.57;5.75;;;;;;;-145.68;71.35;72360.66;10447041;28;20719;-76
2023/08/15 17:10:17;;;;;;;8.82;4.72;;;;;;;-145.68;70.71;72362.66;10444304;28;20214;-76
2023/08/15 17:15:18;;;;;;;8.15;4.40;;;;;;;-145.68;70.52;72338.66;10442724;28;20216;-75
2023/08/15 17:20:18;;;;;;;6.55;4.93;;;;;;;-145.68;72.02;72372.63;10453075;28;20187;-76
2023/08/15 17:25:18;;;;;;;10.52;5.32;;;;;;;-145.68;74.79;72386.63;10429080;28;20692;-76
2023/08/15 17:30:19;;;;;;;10.52;5.30;;;;;;;-145.68;76.61;72404.59;10415471;28;20196;-76
2023/08/15 17:35:19;;;;;;;7.18;4.72;;;;;;;-145.68;78.09;72394.63;10413675;28;20303;-78
2023/08/15 17:40:20;;;;;;;5.65;4.43;;;;;;;-145.68;80.87;72376.63;10414643;28;20197;-77
2023/08/15 17:45:20;;;;;;;8.07;6.20;;;;;;;-145.68;79.01;72386.63;10414330;28;20196;-78
2023/08/15 17:50:20;;;;;;;9.15;5.10;;;;;;;-145.68;83.20;72442.56;10414398;28;20660;-76
2023/08/15 17:55:21;;;;;;;9.82;4.57;;;;;;;-145.68;82.57;72412.59;10414326;28;20223;-75
2023/08/15 18:00:22;;;;;;;9.70;5.80;;;;;;;-145.68;85.66;72446.56;10414500;28;20622;-76
2023/08/15 18:05:22;;;;;;;8.93;5.72;;;;;;;-145.68;92.02;72488.53;10414348;28;20199;-76
2023/08/15 18:10:23;;;;;;;10.32;5.68;;;;;;;-145.68;88.98;72474.53;10414417;28;20188;-75
2023/08/15 18:15:23;;;;;;;10.32;5.50;;;;;;;-145.68;83.19;72434.59;10413369;28;20217;-75
2023/08/15 18:20:23;;;;;;;9.40;6.10;;;;;;;-145.68;83.90;72438.56;10413744;28;20609;-76
2023/08/15 18:25:24;;;;;;;7.43;5.47;;;;;;;-145.68;85.70;72456.56;10412802;28;20224;-76
2023/08/15 18:30:27;;;;;;;8.43;5.90;;;;;;;-145.68;85.91;72456.56;10412253;28;20223;-74
2023/08/15 18:35:27;;;;;;;9.65;5.82;;;;;;;-145.68;86.73;72472.53;10412349;28;20308;-76
2023/08/15 18:40:28;;;;;;;9.82;5.70;;;;;;;-145.68;87.82;72486.53;10411860;28;20199;-75
2023/08/15 18:45:50;;;;;;;10.52;5.93;;;;;;;-145.68;87.06;72478.53;10410523;28;20217;-76
2023/08/15 18:50:51;;;;;;;8.75;5.82;;;;;;;-145.68;85.40;72478.53;10410667;28;20181;-75
2023/08/15 18:55:51;;;;;;;8.63;5.50;;;;;;;-145.68;83.10;72452.56;10409453;28;20758;-76
2023/08/15 19:00:52;;;;;;;6.90;5.38;;;;;;;-145.68;81.46;72436.56;10409973;28;20189;-75
2023/08/15 19:05:52;;;;;;;11.45;5.80;;;;;;;-145.68;81.54;72440.56;10409292;28;21114;-76
2023/08/15 19:10:52;;;;;;;8.02;6.00;;;;;;;-145.68;81.74;72432.59;10408575;28;20565;-75
2023/08/15 19:15:53;;;;;;;13.20;5.82;;;;;;;-145.68;84.10;72504.53;10409298;28;20185;-75
2023/08/15 19:20:54;;;;;;;8.73;5.80;;;;;;;-145.68;84.73;72466.56;10408459;28;20555;-76
2023/08/15 19:25:55;;;;;;;7.13;5.57;;;;;;;-145.68;90.00;72522.50;10408791;28;20232;-75
2023/08/15 19:30:55;;;;;;;9.07;5.68;;;;;;;-145.68;92.13;72522.50;10408914;28;20533;-76
2023/08/15 19:35:55;;;;;;;14.20;5.60;;;;;;;-145.68;100.00;72592.44;10463537;28;20650;-75
2023/08/15 19:40:56;;;;;;;7.60;6.18;;;;;;;-145.68;98.71;72558.47;10490260;28;20578;-76
2023/08/15 19:45:56;;;;;;;6.60;5.75;;;;;;;-145.68;99.11;72568.47;10490351;28;20207;-75
2023/08/15 19:50:57;;;;;;;8.82;6.30;;;;;;;-145.68;100.00;72632.41;10490280;28;20186;-76
2023/08/15 19:55:58;;;;;;;7.55;5.80;;;;;;;-145.68;100.00;72602.44;10489494;28;20183;-75
2023/08/15 20:00:58;;;;;;;8.10;6.43;;;;;;;-145.68;100.00;72602.44;10490552;28;20222;-75
2023/08/15 20:05:59;;;;;;;9.80;6.57;;;;;;;-145.68;100.00;72590.44;10489395;28;20199;-75
2023/08/15 20:10:59;;;;;;;7.85;6.43;;;;;;;-145.68;100.00;72628.41;10490330;28;20195;-75
2023/08/15 20:15:59;;;;;;;7.00;6.30;;;;;;;-145.68;100.00;72614.44;10479900;28;20187;-75
2023/08/15 20:21:02;;;;;;;11.07;6.95;;;;;;;-145.68;100.00;72650.41;10447412;28;20219;-74
2023/08/15 20:26:02;;;;;;;8.98;6.55;;;;;;;-145.68;100.00;72624.41;10448950;28;20325;-75
2023/08/15 20:31:04;;;;;;;7.70;6.45;;;;;;;-145.68;100.00;72628.41;10444920;28;20282;-75
2023/08/15 20:36:05;;;;;;;10.48;6.00;;;;;;;-145.68;100.00;72636.41;10447986;28;20198;-74
2023/08/15 20:41:05;;;;;;;13.27;6.90;;;;;;;-145.68;100.00;72654.41;10427096;28;20197;-74
2023/08/15 20:46:05;;;;;;;10.60;6.32;;;;;;;-145.68;100.00;72662.38;10407212;28;20216;-75
2023/08/15 20:51:06;;;;;;;8.30;6.47;;;;;;;-145.68;100.00;72668.38;10409103;28;20192;-75
2023/08/15 20:56:07;;;;;;;9.52;7.45;;;;;;;-145.68;100.00;72656.41;10415695;28;20192;-75
2023/08/15 21:01:07;;;;;;;8.65;6.95;;;;;;;-145.68;100.00;72676.38;10415850;28;20258;-75
2023/08/15 21:06:07;;;;;;;13.75;6.60;;;;;;;-145.68;100.00;72696.34;10414709;28;20199;-74
2023/08/15 21:11:08;;;;;;;11.90;6.82;;;;;;;-145.68;100.00;72680.38;10415367;28;20196;-75
2023/08/15 21:16:08;;;;;;;8.63;7.20;;;;;;;-145.68;100.00;72768.31;10414695;28;20680;-74
2023/08/15 21:21:09;;;;;;;10.98;7.57;;;;;;;-145.68;100.00;72774.31;10414356;28;20224;-74
2023/08/15 21:26:09;;;;;;;11.35;8.25;;;;;;;-145.68;100.00;72770.31;10413962;28;20236;-74
2023/08/15 21:31:09;;;;;;;8.75;6.97;;;;;;;-145.68;100.00;72780.28;10414065;28;20193;-74
2023/08/15 21:36:10;;;;;;;10.18;8.25;;;;;;;-145.68;100.00;72844.25;10426091;28;20306;-73
2023/08/15 21:41:10;;;;;;;8.93;6.85;;;;;;;-145.68;100.00;72828.25;10455690;28;20271;-74
2023/08/15 21:46:11;;;;;;;12.10;7.88;;;;;;;-145.68;100.00;72794.28;10431598;28;20684;-74
2023/08/15 21:51:11;;;;;;;11.15;7.22;;;;;;;-145.68;100.00;72776.28;10413802;28;20623;-75
2023/08/15 21:56:11;;;;;;;8.00;6.95;;;;;;;-145.68;100.00;72790.28;10413592;28;20195;-74
2023/08/15 22:01:12;;;;;;;8.55;7.63;;;;;;;-145.68;100.00;72810.28;10412836;28;20203;-74
2023/08/15 22:06:12;;;;;;;9.43;8.05;;;;;;;-145.68;100.00;72854.25;10410898;28;20201;-73
2023/08/15 22:11:13;;;;;;;10.85;8.18;;;;;;;-145.68;100.00;72866.22;10412888;28;20287;-75
2023/08/15 22:16:13;;;;;;;13.43;9.05;;;;;;;-145.68;100.00;72898.19;10411841;28;20185;-73
2023/08/15 22:21:13;;;;;;;15.02;9.35;;;;;;;-145.68;100.00;72940.16;10433137;28;20674;-74
2023/08/15 22:26:14;;;;;;;11.02;8.40;;;;;;;-145.68;100.00;72922.19;10453271;28;20250;-75
2023/08/15 22:31:14;;;;;;;17.45;9.20;;;;;;;-145.68;100.00;72966.16;10452841;28;20257;-74
2023/08/15 22:36:15;;;;;;;10.77;8.57;;;;;;;-145.68;100.00;72958.16;10453522;28;20194;-74
2023/08/15 22:41:15;;;;;;;11.18;8.50;;;;;;;-145.68;100.00;72978.16;10453701;28;20188;-74